ADDS METAR Data INFO
IDs: Format: Raw Decoded Include TAF

Data at: 2135 UTC 15 Dec 2017

KHYA 152056Z 04003KT 10SM OVC090 M02/M08 A2994 RMK AO2 SLP140 T10221083 58025
KHYA 151956Z 00000KT 10SM FEW120 M02/M09 A2997 RMK AO2 SLP150 T10221089
KHYA 151856Z 21005KT 10SM CLR M02/M09 A2998 RMK AO2 SLP155 T10221094
KHYA 151756Z 00000KT 10SM CLR M03/M11 A3001 RMK AO2 SLP165 T10281111 11028 21094 58034
KHYA 151656Z 00000KT 10SM CLR M04/M12 A3005 RMK AO2 SLP176 T10391117
KHYA 151556Z 00000KT 10SM CLR M04/M12 A3008 RMK AO2 SLP189 T10391117
KHYA 151456Z 00000KT 10SM CLR M05/M12 A3011 RMK AO2 SLP198 T10501122 53012
KHYA 151356Z 25004KT 10SM CLR M07/M13 A3010 RMK AO2 SLP193 T10671128
KHYA 151256Z 00000KT 10SM CLR M08/M13 A3008 RMK AO2 SLP186 T10831133
KHYA 151156Z 28005KT 10SM CLR M09/M14 A3008 RMK AO2 SLP187 70006 T10941144 11078 21100 52008
KHYA 151056Z 28005KT 10SM CLR M09/M14 A3007 RMK AO2 SLP184 T10891144
KHYA 150956Z AUTO 26004KT 10SM CLR M09/M14 A3006 RMK AO2 SLP180 T10891144
KHYA 150856Z AUTO 27003KT 10SM CLR M08/M14 A3005 RMK AO2 SLP178 T10831144 51014
KHYA 150756Z AUTO 30005KT 10SM CLR M08/M14 A3004 RMK AO2 SLP175 T10831144
KHYA 150656Z AUTO 29006KT 10SM CLR M08/M14 A3002 RMK AO2 SLP168 T10831144
KHYA 150556Z AUTO 28006KT 10SM CLR M08/M15 A3001 RMK AO2 SLP164 T10831150 11044 21083 51020
KHYA 150456Z AUTO 27004KT 10SM CLR M08/M16 A3000 RMK AO2 SLP159 T10781156 410221078
KHYA 150356Z AUTO 27008KT 10SM CLR M07/M16 A2998 RMK AO2 SLP155 T10721161
KHYA 150256Z 28006G14KT 10SM CLR M07/M16 A2995 RMK AO2 SLP144 T10671161 51033
KHYA 150156Z 29008KT 10SM CLR M06/M16 A2992 RMK AO2 SLP135 T10611156
KHYA 150056Z 28008KT 10SM CLR M06/M14 A2989 RMK AO2 SLP123 T10561144
KHYA 142356Z 27007G16KT 10SM CLR M04/M14 A2985 RMK AO2 SLP111 T10441139 11022 21050 51043
KHYA 142256Z 28005KT 10SM CLR M04/M13 A2981 RMK AO2 SLP097 T10391128
KHYA 142156Z 27007KT 10SM CLR M04/M11 A2978 RMK AO2 SLP086 T10391106
KHYA 142056Z 26005KT 10SM CLR M03/M09 A2973 RMK AO2 SLP069 T10331094 53037
KHYA 141956Z 27004KT 10SM CLR M03/M09 A2969 RMK AO2 SLP056 T10281089
KHYA 141856Z 29008KT 10SM SCT060 SCT075 M03/M08 A2965 RMK AO2 SLP041 T10281083
KHYA 141756Z 32008KT 10SM FEW038 BKN044 OVC060 M03/M07 A2962 RMK AO2 UPB1659E03 SLP032 P0000 60006 T10281072 11028 21050 53003
KHYA 141656Z 31008G15KT 10SM OVC032 M03/M06 A2960 RMK AO2 UPB42E47SNE42 SLP026 P0000 T10331056
KHYA 141641Z 31010KT 7SM -SN OVC030 M03/M06 A2961 RMK AO2 P0000 T10331056
KHYA 141556Z 33008KT 1 1/2SM -SN BR FEW011 BKN033 OVC045 M03/M06 A2960 RMK AO2 SLP025 P0000 T10331056 $
KHYA 141524Z 31006KT 1SM -SN BR FEW007 OVC015 M03/M05 A2960 RMK AO2 P0000 T10331050 $
KHYA 141456Z 33007KT 1/2SM -SN BR VV009 M04/M05 A2961 RMK AO2 SLP029 P0004 60006 T10391050 53008 $
KHYA 141431Z 33008KT 1/2SM -SN BR VV009 M04/M05 A2960 RMK AO2 P0002 T10391050
KHYA 141356Z 33007KT 3/4SM -SN BR VV012 M04/M05 A2959 RMK AO2 SLP020 P0002 T10391050
KHYA 141256Z 33006KT 1SM -SN BR OVC022 M04/M07 A2958 RMK AO2 SLP017 P0000 T10441067
KHYA 141249Z 34003KT 1 1/2SM -SN BR OVC026 M04/M07 A2958 RMK AO2 P0000 T10441067
KHYA 141156Z 33005KT 3SM -SN BKN042 OVC050 M05/M08 A2959 RMK AO2 SLP020 P0000 60000 T10501083 11033 21050 58005
KHYA 141056Z 00000KT 8SM -SN OVC060 M05/M09 A2960 RMK AO2 SLP026 P0000 T10501089
KHYA 140956Z AUTO 29003KT 5SM -SN OVC041 M04/M10 A2960 RMK AO2 SNB36 SLP025 P0000 T10441100